Time;durP1;ratioP1;P1;durP2;ratioP2;P2;SDS_P1;SDS_P2;PMS_P1;PMS_P2;Temp;Humidity;BMP_temperature;BMP_pressure;BME280_temperature;BME280_humidity;BME280_pressure;Samples;Min_cycle;Max_cycle;Signal;HPM_P1;HPM_P2
2022/06/28 00:02:23;;;;;;;14.25;9.35;;;;;;;14.53;78.18;102011.53;5009340;28;20029;-59
2022/06/28 00:04:49;;;;;;;15.90;8.90;;;;;;;14.50;78.99;102015.81;5009793;28;20073;-59
2022/06/28 00:07:14;;;;;;;14.63;8.90;;;;;;;14.50;78.48;102010.59;5008119;28;20076;-59
2022/06/28 00:09:39;;;;;;;12.93;9.13;;;;;;;14.49;78.98;102011.41;5008945;28;20041;-59
2022/06/28 00:12:05;;;;;;;15.15;9.15;;;;;;;14.48;79.10;102010.50;5007644;28;20492;-58
2022/06/28 00:17:14;;;;;;;16.85;9.63;;;;;;;14.46;78.94;102012.22;5006300;28;20040;-59
2022/06/28 00:19:40;;;;;;;14.02;9.50;;;;;;;14.47;79.29;102007.84;5010475;28;20037;-59
2022/06/28 00:22:05;;;;;;;14.07;9.63;;;;;;;14.46;79.43;102008.72;5008309;28;20473;-59
2022/06/28 00:24:30;;;;;;;17.38;10.40;;;;;;;14.44;79.09;102006.06;5012865;28;20034;-59
2022/06/28 00:26:56;;;;;;;17.73;10.07;;;;;;;14.44;79.08;102011.31;5010722;28;20136;-58
2022/06/28 00:29:21;;;;;;;15.93;9.20;;;;;;;14.42;78.98;102011.28;5010339;28;20030;-58
2022/06/28 00:31:47;;;;;;;17.13;9.68;;;;;;;14.41;78.92;102022.59;5006091;28;20028;-58
2022/06/28 00:34:12;;;;;;;14.18;9.07;;;;;;;14.40;79.38;102023.44;5010275;28;20026;-58
2022/06/28 00:36:38;;;;;;;17.33;10.23;;;;;;;14.39;79.71;102024.28;5009133;28;20071;-58
2022/06/28 00:39:04;;;;;;;20.25;9.02;;;;;;;14.38;79.98;102024.22;5006286;28;20063;-58
2022/06/28 00:41:29;;;;;;;17.38;9.75;;;;;;;14.36;79.87;102028.56;5007027;28;20045;-58
2022/06/28 00:43:55;;;;;;;16.42;9.40;;;;;;;14.34;79.55;102025.91;5008337;28;20069;-59
2022/06/28 00:46:21;;;;;;;17.23;9.90;;;;;;;14.31;80.25;102023.19;5006433;28;20029;-59
2022/06/28 00:48:47;;;;;;;16.92;10.10;;;;;;;14.32;80.16;102018.81;4997997;28;20496;-58
2022/06/28 00:51:13;;;;;;;15.70;9.80;;;;;;;14.31;80.47;102028.44;5010085;28;20029;-59
2022/06/28 00:53:38;;;;;;;14.30;9.05;;;;;;;14.31;80.23;102024.91;5008368;28;20112;-58
2022/06/28 00:56:04;;;;;;;15.63;9.30;;;;;;;14.31;80.33;102030.16;5009096;28;20063;-58
2022/06/28 00:58:30;;;;;;;15.32;9.55;;;;;;;14.26;80.50;102028.31;5007512;28;20034;-58
2022/06/28 01:00:55;;;;;;;16.45;9.60;;;;;;;14.26;80.24;102024.78;5007905;28;20037;-58
2022/06/28 01:03:22;;;;;;;17.65;9.95;;;;;;;14.23;80.43;102024.72;5008831;28;20609;-58
2022/06/28 01:05:49;;;;;;;15.73;9.25;;;;;;;14.20;80.45;102028.13;5007941;28;20168;-59
2022/06/28 01:08:14;;;;;;;15.52;9.65;;;;;;;14.19;80.49;102025.47;5009438;28;20542;-58
2022/06/28 01:10:41;;;;;;;15.38;9.60;;;;;;;14.18;80.62;102018.44;5008263;28;20117;-58
2022/06/28 01:13:07;;;;;;;16.67;9.68;;;;;;;14.18;80.33;102024.59;5008368;28;20057;-59
2022/06/28 01:15:33;;;;;;;18.45;10.05;;;;;;;14.17;80.43;102028.03;5006186;28;20168;-59
2022/06/28 01:18:00;;;;;;;18.60;9.95;;;;;;;14.15;80.30;102026.22;5006674;28;21374;-59
2022/06/28 01:20:26;;;;;;;17.95;9.65;;;;;;;14.15;79.87;102024.50;5009386;28;20041;-59
2022/06/28 01:22:54;;;;;;;17.00;10.55;;;;;;;14.14;80.24;102027.97;5009385;28;20397;-58
2022/06/28 01:25:21;;;;;;;15.60;9.57;;;;;;;14.13;80.24;102034.03;5004850;28;20121;-58
2022/06/28 01:27:47;;;;;;;13.88;9.07;;;;;;;14.14;80.09;102037.56;5008165;28;20051;-59
2022/06/28 01:30:13;;;;;;;14.25;9.18;;;;;;;14.14;80.12;102034.94;5009353;28;20061;-59
2022/06/28 01:32:40;;;;;;;16.90;9.57;;;;;;;14.12;80.19;102041.88;5008751;28;20452;-59
2022/06/28 01:35:06;;;;;;;17.85;10.05;;;;;;;14.11;79.87;102041.00;5003637;28;20412;-59
2022/06/28 01:37:31;;;;;;;16.83;9.88;;;;;;;14.11;80.00;102034.84;5009742;28;20084;-60
2022/06/28 01:39:57;;;;;;;17.35;10.25;;;;;;;14.11;80.12;102042.69;5008516;28;20393;-59
2022/06/28 01:42:22;;;;;;;17.00;9.75;;;;;;;14.08;80.01;102044.41;5005092;28;20116;-59
2022/06/28 01:44:50;;;;;;;18.25;9.45;;;;;;;14.07;79.96;102044.38;5007302;28;20025;-60
2022/06/28 01:47:18;;;;;;;17.95;10.25;;;;;;;14.05;79.92;102044.31;5005784;28;20033;-60
2022/06/28 01:49:43;;;;;;;18.85;10.10;;;;;;;14.05;79.89;102044.31;5008151;28;20477;-60
2022/06/28 01:52:09;;;;;;;16.85;10.60;;;;;;;14.05;79.85;102046.06;5006622;28;20025;-59
2022/06/28 01:54:34;;;;;;;18.30;9.90;;;;;;;14.04;79.69;102047.78;5007697;28;20028;-59
2022/06/28 01:57:01;;;;;;;21.92;10.73;;;;;;;14.01;79.97;102045.06;5009886;28;20113;-59
2022/06/28 01:59:27;;;;;;;22.23;11.45;;;;;;;14.02;79.64;102048.56;5005126;28;20511;-59
2022/06/28 02:01:52;;;;;;;18.27;10.27;;;;;;;14.01;80.24;102046.81;5007092;28;20042;-59
2022/06/28 02:04:23;;;;;;;17.98;10.60;;;;;;;13.98;80.00;102052.84;5004696;28;21016;-59
2022/06/28 02:06:49;;;;;;;17.30;10.48;;;;;;;13.96;79.96;102040.53;5009132;28;20130;-59
2022/06/28 02:09:15;;;;;;;20.88;10.60;;;;;;;13.94;79.51;102048.34;5006013;28;20101;-59
2022/06/28 02:11:40;;;;;;;15.93;10.13;;;;;;;13.91;79.46;102043.03;5008955;28;20072;-59
2022/06/28 02:14:06;;;;;;;16.98;10.50;;;;;;;13.85;79.74;102045.47;5008246;28;20022;-59
2022/06/28 02:16:31;;;;;;;17.48;10.13;;;;;;;13.84;79.54;102049.81;5008132;28;20045;-59
2022/06/28 02:18:56;;;;;;;15.40;9.40;;;;;;;13.84;79.43;102059.41;5007896;28;20113;-59
2022/06/28 02:21:22;;;;;;;19.88;10.48;;;;;;;13.81;79.64;102054.09;5007888;28;20026;-59
2022/06/28 02:23:47;;;;;;;16.05;9.65;;;;;;;13.79;79.53;102061.91;5005592;28;20036;-59
2022/06/28 02:26:13;;;;;;;20.17;12.00;;;;;;;13.76;79.43;102060.91;5007342;28;20056;-59
2022/06/28 02:28:39;;;;;;;17.65;9.98;;;;;;;13.73;79.50;102064.34;5008102;28;20026;-59
2022/06/28 02:31:13;;;;;;;17.60;10.02;;;;;;;13.72;79.72;102075.66;5008449;28;20420;-59
2022/06/28 02:33:39;;;;;;;18.25;10.45;;;;;;;13.69;79.88;102073.81;5008861;28;20115;-59
2022/06/28 02:41:32;;;;;;;18.00;9.80;;;;;;;13.63;79.65;102080.59;5009012;28;20087;-59
2022/06/28 02:43:58;;;;;;;16.73;9.80;;;;;;;13.60;79.55;102089.28;5007549;28;20030;-59
2022/06/28 02:46:23;;;;;;;17.75;9.55;;;;;;;13.57;79.18;102086.56;5008186;28;20053;-59
2022/06/28 02:48:49;;;;;;;17.27;10.60;;;;;;;13.55;79.65;102088.22;5007448;28;20389;-59
2022/06/28 02:51:14;;;;;;;16.95;10.25;;;;;;;13.54;79.49;102096.91;5007047;28;20416;-59
2022/06/28 02:53:40;;;;;;;17.67;9.73;;;;;;;13.51;79.23;102100.34;5006736;28;20397;-59
2022/06/28 02:56:06;;;;;;;15.25;9.27;;;;;;;13.49;78.76;102111.59;5008758;28;20029;-59
2022/06/28 02:58:31;;;;;;;19.20;9.85;;;;;;;13.45;78.68;102101.88;5009730;28;20026;-59
2022/06/28 03:00:57;;;;;;;19.13;10.07;;;;;;;13.43;78.75;102107.06;5010663;28;20037;-59
2022/06/28 03:03:23;;;;;;;18.20;9.63;;;;;;;13.39;78.67;102113.03;5009280;28;20046;-58
2022/06/28 03:05:48;;;;;;;16.63;10.00;;;;;;;13.37;78.67;102120.84;5009015;28;20064;-59
2022/06/28 03:08:14;;;;;;;16.75;9.77;;;;;;;13.35;78.73;102116.38;5008842;28;20045;-59
2022/06/28 03:10:40;;;;;;;16.40;9.35;;;;;;;13.33;78.62;102124.16;5011178;28;20481;-59
2022/06/28 03:13:05;;;;;;;15.73;8.93;;;;;;;13.30;78.51;102121.44;5012865;28;20029;-59
2022/06/28 03:15:31;;;;;;;16.42;9.18;;;;;;;13.25;78.55;102123.00;5010362;28;20022;-59
2022/06/28 03:17:57;;;;;;;15.57;9.32;;;;;;;13.21;78.73;102121.16;5009040;28;20065;-59
2022/06/28 03:20:22;;;;;;;17.15;9.77;;;;;;;13.16;79.34;102126.22;5010273;28;20034;-59
2022/06/28 03:22:48;;;;;;;17.23;9.02;;;;;;;13.16;79.62;102125.31;5011826;28;20022;-59
2022/06/28 03:25:13;;;;;;;15.00;8.48;;;;;;;13.15;79.38;102126.16;5012072;28;20149;-59
2022/06/28 03:27:38;;;;;;;13.27;8.77;;;;;;;13.13;79.27;102125.22;5006871;28;20105;-59
2022/06/28 03:30:05;;;;;;;14.00;7.95;;;;;;;13.12;79.31;102132.19;5008208;28;20040;-59
2022/06/28 03:32:30;;;;;;;18.60;8.23;;;;;;;13.11;79.37;102137.38;5010986;28;20104;-59
2022/06/28 03:34:56;;;;;;;18.02;8.20;;;;;;;13.10;79.17;102138.22;5010730;28;20481;-59
2022/06/28 03:37:21;;;;;;;13.57;8.00;;;;;;;13.07;78.82;102135.50;5008891;28;20032;-58
2022/06/28 03:39:47;;;;;;;15.23;8.60;;;;;;;13.05;78.75;102138.06;5010285;28;20036;-58
2022/06/28 03:42:12;;;;;;;13.80;8.13;;;;;;;13.03;79.02;102143.25;5011142;28;20034;-58
2022/06/28 03:44:37;;;;;;;19.38;8.57;;;;;;;13.01;78.97;102147.50;5009948;28;20030;-59
2022/06/28 03:47:03;;;;;;;15.25;8.30;;;;;;;12.97;79.21;102143.00;5009217;28;20041;-59
2022/06/28 03:49:28;;;;;;;13.57;7.85;;;;;;;12.95;78.91;102147.31;5009699;28;20030;-59
2022/06/28 03:51:54;;;;;;;14.55;7.85;;;;;;;12.93;78.90;102143.72;5009740;28;20037;-59
2022/06/28 03:54:19;;;;;;;13.43;7.40;;;;;;;12.93;78.96;102148.09;5010540;28;20104;-58
2022/06/28 03:56:44;;;;;;;14.30;7.63;;;;;;;12.91;79.08;102139.31;5011154;28;20456;-58
2022/06/28 03:59:10;;;;;;;13.40;7.60;;;;;;;12.89;79.17;102141.88;5010223;28;20100;-58
2022/06/28 04:01:35;;;;;;;15.27;7.88;;;;;;;12.87;79.07;102144.44;5010821;28;20463;-59
2022/06/28 04:04:00;;;;;;;17.08;8.30;;;;;;;12.86;79.06;102140.03;5006664;28;20049;-58
2022/06/28 04:06:26;;;;;;;14.93;7.63;;;;;;;12.85;79.28;102146.09;5009606;28;20040;-58
2022/06/28 04:08:51;;;;;;;15.18;7.57;;;;;;;12.83;79.60;102145.16;5008539;28;20190;-58
2022/06/28 04:11:16;;;;;;;12.80;7.55;;;;;;;12.83;79.82;102147.78;5008230;28;20240;-58
2022/06/28 04:13:45;;;;;;;12.93;7.40;;;;;;;12.82;79.74;102150.34;5008210;28;20033;-58
2022/06/28 04:16:10;;;;;;;19.38;7.68;;;;;;;12.81;79.73;102148.56;5007370;28;20314;-59
2022/06/28 04:18:36;;;;;;;14.88;7.68;;;;;;;12.81;79.79;102149.44;5009543;28;20207;-58
2022/06/28 04:21:01;;;;;;;14.95;7.55;;;;;;;12.80;79.63;102152.91;5009749;28;20030;-58
2022/06/28 04:23:27;;;;;;;12.43;7.20;;;;;;;12.77;79.91;102152.78;5008520;28;20272;-58
2022/06/28 04:25:53;;;;;;;13.50;7.28;;;;;;;12.77;80.30;102144.03;5005829;28;20117;-58
2022/06/28 04:28:19;;;;;;;13.95;7.53;;;;;;;12.76;80.17;102147.47;5007092;28;20026;-58
2022/06/28 04:30:44;;;;;;;14.48;7.20;;;;;;;12.75;80.54;102149.22;5006229;28;20389;-58
2022/06/28 04:33:09;;;;;;;13.07;7.30;;;;;;;12.75;80.34;102148.34;5009470;28;20057;-58
2022/06/28 04:35:35;;;;;;;14.40;7.43;;;;;;;12.74;80.51;102152.66;5006069;28;20054;-58
2022/06/28 04:38:03;;;;;;;16.08;7.38;;;;;;;12.75;80.55;102144.00;5007619;28;20049;-58
2022/06/28 04:40:29;;;;;;;14.93;7.83;;;;;;;12.74;80.26;102146.56;5003589;28;20033;-58
2022/06/28 04:42:54;;;;;;;14.80;7.00;;;;;;;12.75;80.25;102149.22;5007624;28;20041;-58
2022/06/28 04:45:20;;;;;;;13.07;7.35;;;;;;;12.75;80.70;102144.00;5004715;28;20025;-58
2022/06/28 04:47:45;;;;;;;15.13;7.45;;;;;;;12.74;80.85;102144.81;5008109;28;20109;-58
2022/06/28 04:50:10;;;;;;;12.70;6.80;;;;;;;12.76;80.74;102147.47;5006943;28;20022;-58
2022/06/28 04:52:36;;;;;;;16.80;7.28;;;;;;;12.75;81.29;102148.34;5010044;28;20021;-58
2022/06/28 04:55:04;;;;;;;15.57;7.75;;;;;;;12.76;80.91;102156.25;5010219;28;20022;-58
2022/06/28 04:57:29;;;;;;;12.65;7.05;;;;;;;12.75;80.89;102158.81;5006357;28;20041;-58
2022/06/28 04:59:55;;;;;;;15.10;7.30;;;;;;;12.72;81.15;102154.34;5007791;28;20508;-59
2022/06/28 05:02:20;;;;;;;16.42;7.45;;;;;;;12.72;81.38;102146.50;5007433;28;20034;-59
2022/06/28 05:04:46;;;;;;;20.40;8.13;;;;;;;12.70;81.65;102146.44;5004933;28;20524;-59
2022/06/28 05:07:11;;;;;;;16.50;7.07;;;;;;;12.74;81.75;102155.28;5008248;28;20033;-59
2022/06/28 05:09:37;;;;;;;17.27;7.57;;;;;;;12.76;81.89;102155.34;5007509;28;20020;-58
2022/06/28 05:12:02;;;;;;;14.95;7.13;;;;;;;12.77;81.45;102158.00;5009904;28;20080;-58
2022/06/28 05:14:27;;;;;;;15.43;7.43;;;;;;;12.78;82.01;102159.78;5008800;28;20038;-59
2022/06/28 05:16:53;;;;;;;17.58;7.03;;;;;;;12.81;82.18;102162.50;5009778;28;20033;-58
2022/06/28 05:19:18;;;;;;;18.40;8.05;;;;;;;12.82;82.42;102166.03;5008616;28;20561;-59
2022/06/28 05:21:43;;;;;;;14.48;7.05;;;;;;;12.83;82.92;102158.25;5009435;28;20026;-59
2022/06/28 05:24:09;;;;;;;18.52;7.65;;;;;;;12.85;82.30;102159.16;5009740;28;20037;-59
2022/06/28 05:26:34;;;;;;;14.48;6.72;;;;;;;12.87;82.57;102156.59;5007411;28;20092;-59
2022/06/28 05:29:00;;;;;;;19.35;7.30;;;;;;;12.90;82.92;102159.31;5007285;28;20056;-58
2022/06/28 05:31:25;;;;;;;15.18;7.38;;;;;;;12.92;82.94;102147.22;5007164;28;20090;-59
2022/06/28 05:33:51;;;;;;;14.63;7.28;;;;;;;12.95;83.08;102146.44;5005493;28;20033;-59
2022/06/28 05:36:16;;;;;;;14.55;6.45;;;;;;;12.97;82.78;102150.84;5008226;28;20073;-59
2022/06/28 05:38:42;;;;;;;20.20;7.03;;;;;;;13.00;83.17;102150.97;5007751;28;20033;-59
2022/06/28 05:41:09;;;;;;;15.93;6.82;;;;;;;13.03;83.14;102143.25;5008151;28;20026;-59
2022/06/28 05:43:35;;;;;;;17.85;6.40;;;;;;;13.05;83.02;102149.41;5003420;28;20034;-59
2022/06/28 05:46:01;;;;;;;18.55;6.60;;;;;;;13.08;83.46;102151.25;5007985;28;20380;-59
2022/06/28 05:48:26;;;;;;;18.60;7.10;;;;;;;13.11;83.25;102140.00;5008396;28;20096;-59
2022/06/28 05:50:52;;;;;;;21.38;6.78;;;;;;;13.16;83.90;102139.28;5004085;28;20034;-59
2022/06/28 05:53:17;;;;;;;18.58;6.95;;;;;;;13.18;83.41;102135.00;5009688;28;20036;-59
2022/06/28 05:55:42;;;;;;;17.27;6.22;;;;;;;13.24;83.06;102142.19;5006190;28;20452;-59
2022/06/28 05:58:08;;;;;;;19.65;6.70;;;;;;;13.28;82.96;102135.31;5009385;28;20065;-59
2022/06/28 06:00:37;;;;;;;16.67;6.65;;;;;;;13.34;82.96;102128.59;5006727;28;20046;-59
2022/06/28 06:03:03;;;;;;;;;;;;;;;13.41;81.72;102136.66;5006535;28;20050;-59
2022/06/28 06:05:28;;;;;;;15.73;6.68;;;;;;;13.47;83.68;102135.13;5004858;28;19913;-59
2022/06/28 06:07:53;;;;;;;16.98;6.40;;;;;;;13.55;83.48;102138.84;5006338;28;20038;-59
2022/06/28 06:10:19;;;;;;;15.48;7.05;;;;;;;13.63;83.96;102139.13;5007064;28;20489;-59
2022/06/28 06:12:45;;;;;;;22.45;6.72;;;;;;;13.71;84.04;102132.38;5009120;28;20543;-59
2022/06/28 06:15:10;;;;;;;20.92;6.18;;;;;;;13.80;83.32;102134.44;5009544;28;20033;-59
2022/06/28 06:17:36;;;;;;;24.00;7.97;;;;;;;13.91;83.62;102140.84;5008318;28;20108;-59
2022/06/28 06:20:02;;;;;;;17.90;6.90;;;;;;;13.99;81.61;102148.06;5009163;28;20519;-58
2022/06/28 06:22:28;;;;;;;20.42;7.28;;;;;;;14.06;80.93;102143.09;5007556;28;20036;-58
2022/06/28 06:24:54;;;;;;;17.88;6.25;;;;;;;14.15;80.54;102149.41;5009252;28;20034;-59
2022/06/28 06:27:19;;;;;;;20.17;6.22;;;;;;;14.20;79.84;102143.47;5007959;28;20433;-59
2022/06/28 06:29:44;;;;;;;17.45;6.35;;;;;;;14.31;80.64;102146.44;5009245;28;20481;-58
2022/06/28 06:32:10;;;;;;;20.90;6.38;;;;;;;14.38;80.20;102143.13;5008580;28;20034;-58
2022/06/28 06:34:35;;;;;;;17.30;6.75;;;;;;;14.46;80.08;102156.47;5011239;28;20022;-58
2022/06/28 06:37:00;;;;;;;19.08;5.57;;;;;;;14.53;79.73;102153.16;5010175;28;20480;-59
2022/06/28 06:39:26;;;;;;;17.10;6.43;;;;;;;14.63;78.24;102163.94;5012288;28;20022;-58
2022/06/28 06:41:51;;;;;;;19.75;6.22;;;;;;;14.69;78.51;102157.13;5006620;28;20037;-58
2022/06/28 06:44:17;;;;;;;19.23;5.78;;;;;;;14.74;78.86;102158.16;5010121;28;20687;-58
2022/06/28 06:46:42;;;;;;;20.75;6.03;;;;;;;14.85;79.15;102162.81;5009124;28;20552;-58
2022/06/28 06:49:08;;;;;;;20.88;6.10;;;;;;;14.91;77.46;102158.59;5006572;28;20022;-59
2022/06/28 06:51:33;;;;;;;19.60;5.93;;;;;;;14.98;77.19;102164.91;5013897;28;20078;-58
2022/06/28 06:53:59;;;;;;;15.02;5.45;;;;;;;15.02;76.83;102161.53;5021338;28;20034;-59
2022/06/28 06:56:24;;;;;;;20.95;5.78;;;;;;;15.07;76.86;102159.91;5006419;28;20028;-59
2022/06/28 06:58:49;;;;;;;22.98;6.07;;;;;;;15.15;76.49;102169.72;5004757;28;20080;-58
2022/06/28 07:01:15;;;;;;;18.63;6.32;;;;;;;15.21;77.07;102175.16;5025798;28;20488;-58
2022/06/28 07:03:44;;;;;;;17.73;5.80;;;;;;;15.28;75.74;102171.84;5008305;28;20058;-58
2022/06/28 07:06:14;;;;;;;20.40;5.03;;;;;;;15.36;75.64;102166.75;5014014;28;20048;-59
2022/06/28 07:08:40;;;;;;;20.40;5.25;;;;;;;15.39;76.40;102169.47;5008275;28;20021;-59
2022/06/28 07:11:06;;;;;;;16.50;4.55;;;;;;;15.47;75.96;102173.19;5007909;28;20513;-59
2022/06/28 07:13:31;;;;;;;19.33;4.90;;;;;;;15.59;73.67;102173.47;5010970;28;20021;-59
2022/06/28 07:15:57;;;;;;;11.02;3.58;;;;;;;15.65;72.96;102176.22;5008793;28;20112;-58
2022/06/28 07:18:23;;;;;;;16.95;4.20;;;;;;;15.71;73.18;102172.84;5004596;28;20132;-59
2022/06/28 07:20:52;;;;;;;16.13;4.13;;;;;;;15.77;72.79;102162.53;5003097;28;20050;-59
2022/06/28 07:23:18;;;;;;;13.18;3.88;;;;;;;15.86;73.54;102160.97;5004794;28;20041;-60
2022/06/28 07:25:43;;;;;;;9.98;4.05;;;;;;;15.94;72.06;102167.28;5004128;28;20022;-60
2022/06/28 07:28:10;;;;;;;13.23;3.92;;;;;;;16.00;72.44;102172.69;5004290;28;20476;-59
2022/06/28 07:30:36;;;;;;;11.77;3.58;;;;;;;16.07;69.92;102166.72;5004705;28;20017;-60
2022/06/28 07:33:01;;;;;;;11.73;3.80;;;;;;;16.10;70.93;102163.25;5004640;28;20034;-59
2022/06/28 07:35:27;;;;;;;12.82;4.57;;;;;;;16.15;70.55;102164.28;5006992;28;20028;-59
2022/06/28 07:37:52;;;;;;;14.48;4.80;;;;;;;16.23;71.44;102172.31;5005881;28;20484;-59
2022/06/28 07:40:17;;;;;;;10.55;4.30;;;;;;;16.25;70.71;102163.59;5003928;28;20022;-60
2022/06/28 07:42:43;;;;;;;12.77;3.80;;;;;;;16.31;69.14;102168.13;5002318;28;20477;-59
2022/06/28 07:45:09;;;;;;;14.55;3.60;;;;;;;16.36;67.01;102163.81;5003598;28;20029;-59
2022/06/28 07:47:34;;;;;;;14.52;5.45;;;;;;;16.46;67.69;102164.91;5004334;28;20038;-59
2022/06/28 07:52:43;;;;;;;12.43;3.60;;;;;;;16.56;67.52;102160.72;5006938;28;20513;-59
2022/06/28 07:55:10;;;;;;;15.93;4.13;;;;;;;16.62;68.16;102174.00;5008142;28;20030;-60
2022/06/28 07:57:37;;;;;;;14.00;3.70;;;;;;;16.64;67.93;102165.28;5006365;28;20033;-59
2022/06/28 08:00:04;;;;;;;16.52;4.38;;;;;;;16.70;66.86;102159.25;5009561;28;20042;-59
2022/06/28 08:02:29;;;;;;;12.43;3.83;;;;;;;16.77;67.21;102166.41;5003118;28;20156;-60
2022/06/28 08:04:55;;;;;;;13.75;4.43;;;;;;;16.84;68.34;102157.78;5012399;28;20129;-59
2022/06/28 08:07:21;;;;;;;11.75;3.80;;;;;;;16.89;68.07;102150.00;5010281;28;20503;-58
2022/06/28 08:09:46;;;;;;;13.60;4.20;;;;;;;16.94;68.02;102161.47;5008553;28;20033;-57
2022/06/28 08:12:12;;;;;;;14.02;3.50;;;;;;;16.99;68.90;102149.28;5008506;28;20112;-58
2022/06/28 08:14:37;;;;;;;12.55;3.17;;;;;;;17.08;67.31;102155.59;5009984;28;20030;-57
2022/06/28 08:17:03;;;;;;;10.38;3.60;;;;;;;17.13;66.57;102159.19;5010720;28;20037;-57
2022/06/28 08:19:29;;;;;;;12.45;3.33;;;;;;;17.17;64.36;102151.34;5008566;28;20041;-59
2022/06/28 08:21:54;;;;;;;9.90;3.17;;;;;;;17.22;64.12;102148.81;5009580;28;20034;-61
2022/06/28 08:24:20;;;;;;;15.35;3.42;;;;;;;17.32;66.30;102152.47;5009721;28;20042;-60
2022/06/28 08:26:45;;;;;;;10.90;2.92;;;;;;;17.37;64.78;102150.81;5011584;28;20500;-60
2022/06/28 08:29:12;;;;;;;10.52;2.55;;;;;;;17.43;65.14;102143.00;5011607;28;20030;-61
2022/06/28 08:31:38;;;;;;;10.80;2.40;;;;;;;17.50;65.67;102136.97;5006234;28;20149;-61
2022/06/28 08:34:04;;;;;;;9.13;2.63;;;;;;;17.55;63.02;102137.94;5014726;28;20128;-61
2022/06/28 08:36:29;;;;;;;9.35;2.90;;;;;;;17.62;63.36;102133.63;5005292;28;20018;-62
2022/06/28 08:38:54;;;;;;;11.05;2.60;;;;;;;17.69;64.67;102124.06;5012609;28;20036;-62
2022/06/28 08:41:21;;;;;;;13.13;2.83;;;;;;;17.75;64.47;102131.19;5014395;28;20033;-62
2022/06/28 08:43:46;;;;;;;10.40;3.25;;;;;;;17.83;63.51;102133.06;5009843;28;20077;-64
2022/06/28 08:46:14;;;;;;;9.27;2.55;;;;;;;17.86;63.58;102126.97;5005073;28;20065;-64
2022/06/28 08:48:42;;;;;;;8.90;2.70;;;;;;;17.93;62.69;102117.41;5009392;28;20968;-65
2022/06/28 08:51:10;;;;;;;10.52;2.40;;;;;;;17.97;62.54;102116.56;5006704;28;20064;-61
2022/06/28 08:53:40;;;;;;;7.72;2.38;;;;;;;18.03;61.79;102111.38;5023624;28;20025;-61
2022/06/28 08:56:08;;;;;;;11.18;2.90;;;;;;;18.08;60.26;102115.84;5010587;28;20022;-64
2022/06/28 08:58:33;;;;;;;9.10;2.78;;;;;;;18.17;61.88;102115.06;5013974;28;20489;-63
2022/06/28 09:00:59;;;;;;;10.98;2.97;;;;;;;18.23;61.54;102116.91;5013104;28;20037;-65
2022/06/28 09:03:24;;;;;;;8.95;2.22;;;;;;;18.31;60.54;102111.75;5006873;28;20096;-63
2022/06/28 09:05:50;;;;;;;10.35;2.55;;;;;;;18.35;58.96;102117.06;5003748;28;20057;-65
2022/06/28 09:08:15;;;;;;;8.48;2.50;;;;;;;18.41;61.11;102116.25;5009435;28;20057;-62
2022/06/28 09:10:43;;;;;;;7.47;3.17;;;;;;;18.47;59.56;102112.81;5006551;28;20032;-63
2022/06/28 09:13:10;;;;;;;12.48;2.40;;;;;;;18.52;60.69;102116.38;5014705;28;20033;-62
2022/06/28 09:15:45;;;;;;;9.77;1.92;;;;;;;18.64;60.86;102111.22;5012245;28;20049;-62
2022/06/28 09:18:10;;;;;;;13.15;2.35;;;;;;;18.75;57.63;102112.19;5018752;28;20064;-62
2022/06/28 09:20:38;;;;;;;5.13;1.85;;;;;;;18.83;59.53;102104.38;5018048;28;20080;-69
2022/06/28 09:23:04;;;;;;;7.32;2.05;;;;;;;18.92;57.55;102106.25;5009894;28;20046;-63
2022/06/28 09:25:31;;;;;;;6.57;1.90;;;;;;;18.98;58.31;102101.00;5006792;28;20105;-64
2022/06/28 09:28:01;;;;;;;6.63;1.90;;;;;;;19.06;59.08;102101.06;5014989;28;20386;-65
2022/06/28 09:30:29;;;;;;;6.22;2.05;;;;;;;19.18;59.00;102095.91;5006843;28;20049;-65
2022/06/28 09:32:54;;;;;;;6.93;2.13;;;;;;;19.25;59.44;102091.56;5011301;28;20059;-63
2022/06/28 09:35:22;;;;;;;7.50;2.13;;;;;;;19.34;58.91;102085.47;5018719;28;20033;-65
2022/06/28 09:37:50;;;;;;;7.25;2.10;;;;;;;19.40;59.00;102082.84;5009392;28;20025;-65
2022/06/28 09:40:19;;;;;;;8.43;2.05;;;;;;;19.54;58.20;102085.59;5007290;28;20029;-65
2022/06/28 09:43:03;;;;;;;7.47;1.93;;;;;;;19.57;57.82;102089.13;5007830;28;20049;-66
2022/06/28 09:45:29;;;;;;;8.65;2.20;;;;;;;19.60;54.45;102083.84;5012631;28;20288;-66
2022/06/28 09:47:55;;;;;;;7.63;2.20;;;;;;;19.64;56.64;102068.91;5007898;28;20025;-63
2022/06/28 09:50:23;;;;;;;6.15;1.90;;;;;;;19.73;57.17;102071.59;5008929;28;20037;-63
2022/06/28 09:52:50;;;;;;;6.35;1.90;;;;;;;19.83;58.00;102069.91;5012439;28;20114;-60
2022/06/28 09:55:16;;;;;;;6.90;2.05;;;;;;;19.92;57.84;102069.06;5007127;28;20109;-60
2022/06/28 09:57:44;;;;;;;7.70;2.20;;;;;;;19.98;56.52;102071.75;5010094;28;20030;-60
2022/06/28 10:00:10;;;;;;;7.53;2.00;;;;;;;20.05;55.57;102064.72;5008079;28;20397;-61
2022/06/28 10:02:35;;;;;;;7.95;2.28;;;;;;;20.11;56.54;102068.25;5006450;28;20125;-61
2022/06/28 10:05:01;;;;;;;7.18;2.30;;;;;;;20.15;56.10;102064.75;5006995;28;20129;-63
2022/06/28 10:07:37;;;;;;;8.82;2.25;;;;;;;20.27;57.45;102065.66;5016991;28;20052;-61
2022/06/28 10:10:05;;;;;;;8.70;2.65;;;;;;;20.37;56.72;102059.50;5018935;28;20495;-63
2022/06/28 10:15:26;;;;;;;6.88;2.10;;;;;;;20.53;55.87;102060.44;5012896;28;20100;-61
2022/06/28 10:17:52;;;;;;;9.82;2.67;;;;;;;20.61;56.36;102053.38;5012803;28;20041;-60
2022/06/28 10:20:22;;;;;;;5.95;2.40;;;;;;;20.69;55.70;102057.84;5010417;28;20087;-61
2022/06/28 10:22:47;;;;;;;7.20;2.17;;;;;;;20.77;55.15;102064.91;5011669;28;20029;-62
2022/06/28 10:25:18;;;;;;;6.63;2.20;;;;;;;20.83;55.61;102056.97;5011594;28;20459;-61
2022/06/28 10:27:49;;;;;;;7.63;2.25;;;;;;;20.90;54.01;102047.25;5021059;28;20037;-62
2022/06/28 10:30:14;;;;;;;8.05;2.50;;;;;;;21.04;55.82;102044.59;5012457;28;20516;-60
2022/06/28 10:32:52;;;;;;;6.23;2.10;;;;;;;21.14;55.81;102033.09;5012059;28;20036;-60
2022/06/28 10:35:32;;;;;;;7.78;2.65;;;;;;;21.22;55.14;102038.41;5009361;28;20335;-60
2022/06/28 10:38:09;;;;;;;6.15;2.30;;;;;;;21.26;57.25;102034.84;5008292;28;20029;-61
2022/06/28 10:40:41;;;;;;;7.97;2.60;;;;;;;21.32;55.13;102031.28;5016835;28;20105;-59
2022/06/28 10:43:07;;;;;;;9.35;2.55;;;;;;;21.38;54.61;102018.03;5012041;28;20032;-60
2022/06/28 10:46:00;;;;;;;7.95;2.50;;;;;;;21.48;55.33;102018.91;5013616;28;20033;-68
2022/06/28 10:48:26;;;;;;;8.65;3.08;;;;;;;21.56;54.41;102017.13;5017273;28;20036;-61
2022/06/28 10:51:00;;;;;;;8.10;2.72;;;;;;;21.63;55.10;102018.84;5005985;28;20033;-60
2022/06/28 10:53:27;;;;;;;6.40;2.85;;;;;;;21.67;54.30;102012.66;5013664;28;20097;-60
2022/06/28 10:56:15;;;;;;;6.45;2.47;;;;;;;21.76;56.77;102002.91;5010339;28;20036;-60
2022/06/28 10:59:05;;;;;;;6.63;2.67;;;;;;;21.84;53.91;102001.97;5009907;28;20033;-60
2022/06/28 11:01:39;;;;;;;8.23;2.58;;;;;;;21.93;53.98;102000.16;5010141;28;20033;-60
2022/06/28 11:04:20;;;;;;;7.47;2.53;;;;;;;22.00;54.25;102002.78;5007868;28;20081;-60
2022/06/28 11:06:58;;;;;;;8.20;2.50;;;;;;;22.05;52.47;102000.09;5007570;28;20129;-62
2022/06/28 11:09:47;;;;;;;7.22;2.60;;;;;;;22.15;53.88;101998.28;5008019;28;20611;-62
2022/06/28 11:12:22;;;;;;;7.68;2.40;;;;;;;22.23;54.84;101997.34;5007212;28;20519;-63
2022/06/28 11:14:56;;;;;;;6.05;2.15;;;;;;;22.30;50.37;101984.00;5005498;28;20061;-61
2022/06/28 11:17:26;;;;;;;7.25;2.45;;;;;;;22.37;53.32;101988.41;5006986;28;20508;-62
2022/06/28 11:19:54;;;;;;;6.78;2.40;;;;;;;22.42;51.44;101991.03;5007602;28;20073;-61
2022/06/28 11:22:30;;;;;;;8.55;2.42;;;;;;;22.47;51.76;101989.25;5005968;28;20053;-60
2022/06/28 11:24:58;;;;;;;6.78;2.45;;;;;;;22.46;50.12;101979.50;5004511;28;20053;-61
2022/06/28 11:27:24;;;;;;;8.10;2.60;;;;;;;22.55;49.47;101980.31;5016810;28;20489;-59
2022/06/28 11:30:01;;;;;;;8.25;2.70;;;;;;;22.65;51.59;101980.22;5007501;28;20036;-59
2022/06/28 11:32:32;;;;;;;5.10;2.40;;;;;;;22.60;48.70;101972.31;5007549;28;20030;-59